sensor_id;sensor_type;location;lat;lon;timestamp;temperature;humidity
10566;DHT22;5331;48.148;16.326;2023-05-10T00:00:24;10.10;1.00
10566;DHT22;5331;48.148;16.326;2023-05-10T00:02:51;10.10;1.00
10566;DHT22;5331;48.148;16.326;2023-05-10T00:05:18;10.00;1.00
10566;DHT22;5331;48.148;16.326;2023-05-10T00:07:46;9.90;1.00
10566;DHT22;5331;48.148;16.326;2023-05-10T00:10:13;10.00;1.00
10566;DHT22;5331;48.148;16.326;2023-05-10T00:12:40;9.90;1.00
10566;DHT22;5331;48.148;16.326;2023-05-10T00:15:08;10.00;1.00
10566;DHT22;5331;48.148;16.326;2023-05-10T00:17:35;10.00;1.00
10566;DHT22;5331;48.148;16.326;2023-05-10T00:20:02;9.90;1.00
10566;DHT22;5331;48.148;16.326;2023-05-10T00:22:30;9.90;1.00
10566;DHT22;5331;48.148;16.326;2023-05-10T00:24:58;9.90;1.00
10566;DHT22;5331;48.148;16.326;2023-05-10T00:27:25;9.90;1.00
10566;DHT22;5331;48.148;16.326;2023-05-10T00:29:52;10.00;1.00
10566;DHT22;5331;48.148;16.326;2023-05-10T00:32:19;9.90;1.00
10566;DHT22;5331;48.148;16.326;2023-05-10T00:34:46;9.90;1.00
10566;DHT22;5331;48.148;16.326;2023-05-10T00:37:13;10.00;1.00
10566;DHT22;5331;48.148;16.326;2023-05-10T00:39:40;10.00;1.00
10566;DHT22;5331;48.148;16.326;2023-05-10T00:42:08;9.90;1.00
10566;DHT22;5331;48.148;16.326;2023-05-10T00:44:35;9.90;1.00
10566;DHT22;5331;48.148;16.326;2023-05-10T00:47:02;9.90;1.00
10566;DHT22;5331;48.148;16.326;2023-05-10T00:49:29;9.90;1.00
10566;DHT22;5331;48.148;16.326;2023-05-10T00:51:56;9.90;1.00
10566;DHT22;5331;48.148;16.326;2023-05-10T00:54:23;9.90;1.00
10566;DHT22;5331;48.148;16.326;2023-05-10T00:56:51;9.90;1.00
10566;DHT22;5331;48.148;16.326;2023-05-10T00:59:20;9.80;1.00
10566;DHT22;5331;48.148;16.326;2023-05-10T01:01:47;9.80;1.00
10566;DHT22;5331;48.148;16.326;2023-05-10T01:04:14;9.80;1.00
10566;DHT22;5331;48.148;16.326;2023-05-10T01:06:42;9.80;1.00
10566;DHT22;5331;48.148;16.326;2023-05-10T01:09:09;9.70;1.00
10566;DHT22;5331;48.148;16.326;2023-05-10T01:11:38;9.70;1.00
10566;DHT22;5331;48.148;16.326;2023-05-10T01:14:07;9.70;1.00
10566;DHT22;5331;48.148;16.326;2023-05-10T01:16:37;9.70;1.00
10566;DHT22;5331;48.148;16.326;2023-05-10T01:19:05;9.70;1.00
10566;DHT22;5331;48.148;16.326;2023-05-10T01:21:38;9.70;1.00
10566;DHT22;5331;48.148;16.326;2023-05-10T01:27:25;9.70;1.00
10566;DHT22;5331;48.148;16.326;2023-05-10T01:30:33;9.70;1.00
10566;DHT22;5331;48.148;16.326;2023-05-10T01:33:08;9.70;1.00
10566;DHT22;5331;48.148;16.326;2023-05-10T01:35:41;9.60;1.00
10566;DHT22;5331;48.148;16.326;2023-05-10T01:38:18;9.60;1.00
10566;DHT22;5331;48.148;16.326;2023-05-10T01:40:55;9.60;1.00
10566;DHT22;5331;48.148;16.326;2023-05-10T01:43:32;9.60;1.00
10566;DHT22;5331;48.148;16.326;2023-05-10T01:46:07;9.60;1.00
10566;DHT22;5331;48.148;16.326;2023-05-10T01:48:42;9.60;1.00
10566;DHT22;5331;48.148;16.326;2023-05-10T01:51:13;9.50;1.00
10566;DHT22;5331;48.148;16.326;2023-05-10T01:53:42;9.60;1.00
10566;DHT22;5331;48.148;16.326;2023-05-10T01:56:11;9.60;1.00
10566;DHT22;5331;48.148;16.326;2023-05-10T01:58:39;9.60;1.00
10566;DHT22;5331;48.148;16.326;2023-05-10T02:01:08;9.50;1.00
10566;DHT22;5331;48.148;16.326;2023-05-10T02:03:38;9.50;1.00
10566;DHT22;5331;48.148;16.326;2023-05-10T02:06:07;9.50;1.00
10566;DHT22;5331;48.148;16.326;2023-05-10T02:08:36;9.50;1.00
10566;DHT22;5331;48.148;16.326;2023-05-10T02:11:03;9.50;1.00
10566;DHT22;5331;48.148;16.326;2023-05-10T02:13:33;9.50;1.00
10566;DHT22;5331;48.148;16.326;2023-05-10T02:16:03;9.50;1.00
10566;DHT22;5331;48.148;16.326;2023-05-10T02:18:33;9.40;1.00
10566;DHT22;5331;48.148;16.326;2023-05-10T02:21:02;9.40;1.00
10566;DHT22;5331;48.148;16.326;2023-05-10T02:23:30;9.40;1.00
10566;DHT22;5331;48.148;16.326;2023-05-10T02:25:57;9.40;1.00
10566;DHT22;5331;48.148;16.326;2023-05-10T02:28:26;9.50;1.00
10566;DHT22;5331;48.148;16.326;2023-05-10T02:30:54;9.50;1.00
10566;DHT22;5331;48.148;16.326;2023-05-10T02:33:22;9.40;1.00
10566;DHT22;5331;48.148;16.326;2023-05-10T02:35:50;9.40;1.00
10566;DHT22;5331;48.148;16.326;2023-05-10T02:38:20;9.40;1.00
10566;DHT22;5331;48.148;16.326;2023-05-10T02:40:48;9.40;1.00
10566;DHT22;5331;48.148;16.326;2023-05-10T02:43:16;9.40;1.00
10566;DHT22;5331;48.148;16.326;2023-05-10T02:45:43;9.30;1.00
10566;DHT22;5331;48.148;16.326;2023-05-10T02:48:13;9.30;1.00
10566;DHT22;5331;48.148;16.326;2023-05-10T02:50:43;9.30;1.00
10566;DHT22;5331;48.148;16.326;2023-05-10T02:53:14;9.30;1.00
10566;DHT22;5331;48.148;16.326;2023-05-10T02:55:45;9.30;1.00
10566;DHT22;5331;48.148;16.326;2023-05-10T02:58:13;9.20;1.00
10566;DHT22;5331;48.148;16.326;2023-05-10T03:00:40;9.20;1.00
10566;DHT22;5331;48.148;16.326;2023-05-10T03:03:07;9.20;1.00
10566;DHT22;5331;48.148;16.326;2023-05-10T03:05:34;9.20;1.00
10566;DHT22;5331;48.148;16.326;2023-05-10T03:08:01;9.10;1.00
10566;DHT22;5331;48.148;16.326;2023-05-10T03:10:31;9.00;1.00
10566;DHT22;5331;48.148;16.326;2023-05-10T03:13:07;9.00;1.00
10566;DHT22;5331;48.148;16.326;2023-05-10T03:15:47;9.00;1.00
10566;DHT22;5331;48.148;16.326;2023-05-10T03:18:18;8.90;1.00
10566;DHT22;5331;48.148;16.326;2023-05-10T03:20:48;8.90;1.00
10566;DHT22;5331;48.148;16.326;2023-05-10T03:23:22;8.90;1.00
10566;DHT22;5331;48.148;16.326;2023-05-10T03:25:51;8.80;1.00
10566;DHT22;5331;48.148;16.326;2023-05-10T03:28:21;8.80;1.00
10566;DHT22;5331;48.148;16.326;2023-05-10T03:30:49;8.80;1.00
10566;DHT22;5331;48.148;16.326;2023-05-10T03:33:16;8.70;1.00
10566;DHT22;5331;48.148;16.326;2023-05-10T03:35:43;8.80;1.00
10566;DHT22;5331;48.148;16.326;2023-05-10T03:38:11;8.70;1.00
10566;DHT22;5331;48.148;16.326;2023-05-10T03:40:38;8.80;1.00
10566;DHT22;5331;48.148;16.326;2023-05-10T03:43:05;8.80;1.00
10566;DHT22;5331;48.148;16.326;2023-05-10T03:45:34;8.80;1.00
10566;DHT22;5331;48.148;16.326;2023-05-10T03:48:01;8.80;1.00
10566;DHT22;5331;48.148;16.326;2023-05-10T03:50:28;8.80;1.00
10566;DHT22;5331;48.148;16.326;2023-05-10T03:52:55;8.80;1.00
10566;DHT22;5331;48.148;16.326;2023-05-10T03:55:22;8.80;1.00
10566;DHT22;5331;48.148;16.326;2023-05-10T03:57:49;8.80;1.00
10566;DHT22;5331;48.148;16.326;2023-05-10T04:00:18;8.80;1.00
10566;DHT22;5331;48.148;16.326;2023-05-10T04:02:46;8.80;1.00
10566;DHT22;5331;48.148;16.326;2023-05-10T04:05:13;8.90;1.00
10566;DHT22;5331;48.148;16.326;2023-05-10T04:07:40;8.90;1.00
10566;DHT22;5331;48.148;16.326;2023-05-10T04:10:08;8.90;1.00
10566;DHT22;5331;48.148;16.326;2023-05-10T04:12:35;8.80;1.00
10566;DHT22;5331;48.148;16.326;2023-05-10T04:15:02;8.90;1.00
10566;DHT22;5331;48.148;16.326;2023-05-10T04:17:29;8.90;1.00
10566;DHT22;5331;48.148;16.326;2023-05-10T04:19:58;8.90;1.00
10566;DHT22;5331;48.148;16.326;2023-05-10T04:22:24;9.00;1.00
10566;DHT22;5331;48.148;16.326;2023-05-10T04:24:53;9.10;1.00
10566;DHT22;5331;48.148;16.326;2023-05-10T04:27:20;9.10;1.00
10566;DHT22;5331;48.148;16.326;2023-05-10T04:29:46;9.10;1.00
10566;DHT22;5331;48.148;16.326;2023-05-10T04:32:13;9.20;1.00
10566;DHT22;5331;48.148;16.326;2023-05-10T04:34:41;9.20;1.00
10566;DHT22;5331;48.148;16.326;2023-05-10T04:37:10;9.30;1.00
10566;DHT22;5331;48.148;16.326;2023-05-10T04:39:36;9.30;1.00
10566;DHT22;5331;48.148;16.326;2023-05-10T04:42:04;9.40;1.00
10566;DHT22;5331;48.148;16.326;2023-05-10T04:44:31;9.40;1.00
10566;DHT22;5331;48.148;16.326;2023-05-10T04:46:58;9.50;1.00
10566;DHT22;5331;48.148;16.326;2023-05-10T04:49:25;9.50;1.00
10566;DHT22;5331;48.148;16.326;2023-05-10T04:51:52;9.60;1.00
10566;DHT22;5331;48.148;16.326;2023-05-10T04:54:20;9.70;1.00
10566;DHT22;5331;48.148;16.326;2023-05-10T04:56:47;9.80;1.00
10566;DHT22;5331;48.148;16.326;2023-05-10T04:59:14;9.90;1.00
10566;DHT22;5331;48.148;16.326;2023-05-10T05:01:41;10.00;1.00
10566;DHT22;5331;48.148;16.326;2023-05-10T05:04:08;10.00;1.00
10566;DHT22;5331;48.148;16.326;2023-05-10T05:06:35;10.10;1.00
10566;DHT22;5331;48.148;16.326;2023-05-10T05:09:02;10.30;1.00
10566;DHT22;5331;48.148;16.326;2023-05-10T05:11:30;10.30;1.00
10566;DHT22;5331;48.148;16.326;2023-05-10T05:13:57;10.40;1.00
10566;DHT22;5331;48.148;16.326;2023-05-10T05:16:25;10.50;1.00
10566;DHT22;5331;48.148;16.326;2023-05-10T05:18:53;10.70;1.00
10566;DHT22;5331;48.148;16.326;2023-05-10T05:21:21;10.80;1.00
10566;DHT22;5331;48.148;16.326;2023-05-10T05:23:48;10.90;1.00
10566;DHT22;5331;48.148;16.326;2023-05-10T05:26:15;11.20;1.00
10566;DHT22;5331;48.148;16.326;2023-05-10T05:28:43;11.30;1.00
10566;DHT22;5331;48.148;16.326;2023-05-10T05:31:10;11.40;1.00
10566;DHT22;5331;48.148;16.326;2023-05-10T05:33:37;11.50;1.00
10566;DHT22;5331;48.148;16.326;2023-05-10T05:36:05;11.70;1.00
10566;DHT22;5331;48.148;16.326;2023-05-10T05:38:32;11.90;1.00
10566;DHT22;5331;48.148;16.326;2023-05-10T05:40:59;12.00;1.00
10566;DHT22;5331;48.148;16.326;2023-05-10T05:43:26;12.20;1.00
10566;DHT22;5331;48.148;16.326;2023-05-10T05:45:55;12.40;1.00
10566;DHT22;5331;48.148;16.326;2023-05-10T05:48:23;12.50;1.00
10566;DHT22;5331;48.148;16.326;2023-05-10T05:50:50;12.80;1.00
10566;DHT22;5331;48.148;16.326;2023-05-10T05:53:20;13.00;1.00
10566;DHT22;5331;48.148;16.326;2023-05-10T05:55:53;13.20;1.00
10566;DHT22;5331;48.148;16.326;2023-05-10T05:58:21;13.40;1.00
10566;DHT22;5331;48.148;16.326;2023-05-10T06:00:48;13.60;1.00
10566;DHT22;5331;48.148;16.326;2023-05-10T06:03:16;14.00;1.00
10566;DHT22;5331;48.148;16.326;2023-05-10T06:05:43;14.50;1.00
10566;DHT22;5331;48.148;16.326;2023-05-10T06:08:10;14.90;1.00
10566;DHT22;5331;48.148;16.326;2023-05-10T06:10:37;15.30;1.00
10566;DHT22;5331;48.148;16.326;2023-05-10T06:13:04;15.60;1.00
10566;DHT22;5331;48.148;16.326;2023-05-10T06:15:31;16.00;1.00
10566;DHT22;5331;48.148;16.326;2023-05-10T06:17:58;16.20;1.00
10566;DHT22;5331;48.148;16.326;2023-05-10T06:20:27;16.40;1.00
10566;DHT22;5331;48.148;16.326;2023-05-10T06:22:54;16.30;1.00
10566;DHT22;5331;48.148;16.326;2023-05-10T06:25:21;16.50;1.00
10566;DHT22;5331;48.148;16.326;2023-05-10T06:27:48;16.70;1.00
10566;DHT22;5331;48.148;16.326;2023-05-10T06:30:15;16.90;1.00
10566;DHT22;5331;48.148;16.326;2023-05-10T06:32:42;17.10;1.00
10566;DHT22;5331;48.148;16.326;2023-05-10T06:35:10;17.00;1.00
10566;DHT22;5331;48.148;16.326;2023-05-10T06:37:38;17.30;1.00
10566;DHT22;5331;48.148;16.326;2023-05-10T06:40:06;17.30;1.00
10566;DHT22;5331;48.148;16.326;2023-05-10T06:42:34;17.50;1.00
10566;DHT22;5331;48.148;16.326;2023-05-10T06:45:01;17.90;1.00
10566;DHT22;5331;48.148;16.326;2023-05-10T06:47:28;17.60;1.00
10566;DHT22;5331;48.148;16.326;2023-05-10T06:49:55;17.70;1.00
10566;DHT22;5331;48.148;16.326;2023-05-10T06:52:22;17.90;1.00
10566;DHT22;5331;48.148;16.326;2023-05-10T06:54:51;17.80;1.00
10566;DHT22;5331;48.148;16.326;2023-05-10T06:57:18;18.10;1.00
10566;DHT22;5331;48.148;16.326;2023-05-10T06:59:46;18.20;1.00
10566;DHT22;5331;48.148;16.326;2023-05-10T07:02:13;18.20;1.00
10566;DHT22;5331;48.148;16.326;2023-05-10T07:04:40;18.20;1.00
10566;DHT22;5331;48.148;16.326;2023-05-10T07:07:07;18.50;1.00
10566;DHT22;5331;48.148;16.326;2023-05-10T07:09:34;18.70;1.00
10566;DHT22;5331;48.148;16.326;2023-05-10T07:12:02;18.50;1.00
10566;DHT22;5331;48.148;16.326;2023-05-10T07:14:29;18.50;1.00
10566;DHT22;5331;48.148;16.326;2023-05-10T07:16:56;18.50;1.00
10566;DHT22;5331;48.148;16.326;2023-05-10T07:19:23;18.40;1.00
10566;DHT22;5331;48.148;16.326;2023-05-10T07:21:50;18.50;1.00
10566;DHT22;5331;48.148;16.326;2023-05-10T07:24:17;18.70;1.00
10566;DHT22;5331;48.148;16.326;2023-05-10T07:26:44;18.90;1.00
10566;DHT22;5331;48.148;16.326;2023-05-10T07:29:12;19.10;1.00
10566;DHT22;5331;48.148;16.326;2023-05-10T07:31:39;18.80;1.00
10566;DHT22;5331;48.148;16.326;2023-05-10T07:34:07;18.80;1.00
10566;DHT22;5331;48.148;16.326;2023-05-10T07:36:34;18.60;1.00
10566;DHT22;5331;48.148;16.326;2023-05-10T07:39:01;18.80;1.00
10566;DHT22;5331;48.148;16.326;2023-05-10T07:41:28;18.50;1.00
10566;DHT22;5331;48.148;16.326;2023-05-10T07:43:55;18.60;1.00
10566;DHT22;5331;48.148;16.326;2023-05-10T07:46:24;18.80;1.00
10566;DHT22;5331;48.148;16.326;2023-05-10T07:48:51;18.70;1.00
10566;DHT22;5331;48.148;16.326;2023-05-10T07:51:18;18.90;1.00
10566;DHT22;5331;48.148;16.326;2023-05-10T07:53:45;18.60;1.00
10566;DHT22;5331;48.148;16.326;2023-05-10T07:56:23;18.60;1.00
10566;DHT22;5331;48.148;16.326;2023-05-10T07:58:53;18.90;1.00
10566;DHT22;5331;48.148;16.326;2023-05-10T08:01:20;18.70;1.00
10566;DHT22;5331;48.148;16.326;2023-05-10T08:03:49;18.70;1.00
10566;DHT22;5331;48.148;16.326;2023-05-10T08:06:17;18.60;1.00
10566;DHT22;5331;48.148;16.326;2023-05-10T08:08:45;18.70;1.00
10566;DHT22;5331;48.148;16.326;2023-05-10T08:11:16;18.60;1.00
10566;DHT22;5331;48.148;16.326;2023-05-10T08:13:43;18.30;1.00
10566;DHT22;5331;48.148;16.326;2023-05-10T08:16:10;18.50;1.00
10566;DHT22;5331;48.148;16.326;2023-05-10T08:18:37;18.90;1.00
10566;DHT22;5331;48.148;16.326;2023-05-10T08:21:06;18.80;1.00
10566;DHT22;5331;48.148;16.326;2023-05-10T08:23:33;18.90;1.00
10566;DHT22;5331;48.148;16.326;2023-05-10T08:26:00;18.70;1.00
10566;DHT22;5331;48.148;16.326;2023-05-10T08:28:27;18.90;1.00
10566;DHT22;5331;48.148;16.326;2023-05-10T08:30:54;19.00;1.00
10566;DHT22;5331;48.148;16.326;2023-05-10T08:33:23;19.00;1.00
10566;DHT22;5331;48.148;16.326;2023-05-10T08:35:50;18.70;1.00
10566;DHT22;5331;48.148;16.326;2023-05-10T08:38:19;18.80;1.00
10566;DHT22;5331;48.148;16.326;2023-05-10T08:40:47;18.80;1.00
10566;DHT22;5331;48.148;16.326;2023-05-10T08:43:16;19.10;1.00
10566;DHT22;5331;48.148;16.326;2023-05-10T08:45:44;19.10;1.00
10566;DHT22;5331;48.148;16.326;2023-05-10T08:48:12;18.80;1.00
10566;DHT22;5331;48.148;16.326;2023-05-10T08:50:41;18.70;1.00
10566;DHT22;5331;48.148;16.326;2023-05-10T08:53:10;18.80;1.00
10566;DHT22;5331;48.148;16.326;2023-05-10T08:55:39;18.70;1.00
10566;DHT22;5331;48.148;16.326;2023-05-10T08:58:08;18.60;1.00
10566;DHT22;5331;48.148;16.326;2023-05-10T09:00:36;18.70;1.00
10566;DHT22;5331;48.148;16.326;2023-05-10T09:03:04;18.40;1.00
10566;DHT22;5331;48.148;16.326;2023-05-10T09:05:31;18.30;1.00
10566;DHT22;5331;48.148;16.326;2023-05-10T09:07:58;18.00;1.00
10566;DHT22;5331;48.148;16.326;2023-05-10T09:10:26;17.90;1.00
10566;DHT22;5331;48.148;16.326;2023-05-10T09:12:56;17.90;1.00
10566;DHT22;5331;48.148;16.326;2023-05-10T09:15:23;18.00;1.00
10566;DHT22;5331;48.148;16.326;2023-05-10T09:17:51;18.00;1.00
10566;DHT22;5331;48.148;16.326;2023-05-10T09:20:18;17.90;1.00
10566;DHT22;5331;48.148;16.326;2023-05-10T09:22:46;18.10;1.00
10566;DHT22;5331;48.148;16.326;2023-05-10T09:25:15;18.70;1.00
10566;DHT22;5331;48.148;16.326;2023-05-10T09:27:45;18.50;1.00
10566;DHT22;5331;48.148;16.326;2023-05-10T09:30:17;18.70;1.00
10566;DHT22;5331;48.148;16.326;2023-05-10T09:32:50;18.60;1.00
10566;DHT22;5331;48.148;16.326;2023-05-10T09:35:18;18.40;1.00
10566;DHT22;5331;48.148;16.326;2023-05-10T09:37:47;18.40;1.00
10566;DHT22;5331;48.148;16.326;2023-05-10T09:40:15;18.50;1.00
10566;DHT22;5331;48.148;16.326;2023-05-10T09:42:51;18.50;1.00
10566;DHT22;5331;48.148;16.326;2023-05-10T09:45:20;18.40;1.00
10566;DHT22;5331;48.148;16.326;2023-05-10T09:47:47;18.30;1.00
10566;DHT22;5331;48.148;16.326;2023-05-10T09:50:14;18.50;1.00
10566;DHT22;5331;48.148;16.326;2023-05-10T09:52:49;18.80;1.00
10566;DHT22;5331;48.148;16.326;2023-05-10T09:55:18;19.10;1.00
10566;DHT22;5331;48.148;16.326;2023-05-10T09:57:46;19.50;1.00
10566;DHT22;5331;48.148;16.326;2023-05-10T10:00:18;19.60;1.00
10566;DHT22;5331;48.148;16.326;2023-05-10T10:02:48;19.90;1.00
10566;DHT22;5331;48.148;16.326;2023-05-10T10:05:20;20.00;1.00
10566;DHT22;5331;48.148;16.326;2023-05-10T10:07:47;20.00;1.00
10566;DHT22;5331;48.148;16.326;2023-05-10T10:10:16;19.80;1.00
10566;DHT22;5331;48.148;16.326;2023-05-10T10:12:43;19.50;1.00
10566;DHT22;5331;48.148;16.326;2023-05-10T10:15:10;19.70;1.00
10566;DHT22;5331;48.148;16.326;2023-05-10T10:17:38;19.80;1.00
10566;DHT22;5331;48.148;16.326;2023-05-10T10:20:08;19.80;1.00
10566;DHT22;5331;48.148;16.326;2023-05-10T10:22:36;19.50;1.00
10566;DHT22;5331;48.148;16.326;2023-05-10T10:25:05;19.70;1.00
10566;DHT22;5331;48.148;16.326;2023-05-10T10:27:39;19.90;1.00
10566;DHT22;5331;48.148;16.326;2023-05-10T10:30:16;19.80;1.00
10566;DHT22;5331;48.148;16.326;2023-05-10T10:32:59;19.80;1.00
10566;DHT22;5331;48.148;16.326;2023-05-10T10:35:29;20.00;1.00
10566;DHT22;5331;48.148;16.326;2023-05-10T10:37:57;20.00;1.00
10566;DHT22;5331;48.148;16.326;2023-05-10T10:40:25;20.10;1.00
10566;DHT22;5331;48.148;16.326;2023-05-10T10:42:53;20.10;1.00
10566;DHT22;5331;48.148;16.326;2023-05-10T10:45:21;20.10;1.00
10566;DHT22;5331;48.148;16.326;2023-05-10T10:47:48;19.70;1.00
10566;DHT22;5331;48.148;16.326;2023-05-10T10:50:17;19.60;1.00
10566;DHT22;5331;48.148;16.326;2023-05-10T10:52:45;19.80;1.00
10566;DHT22;5331;48.148;16.326;2023-05-10T10:55:17;20.00;1.00
10566;DHT22;5331;48.148;16.326;2023-05-10T10:57:49;19.90;1.00
10566;DHT22;5331;48.148;16.326;2023-05-10T11:00:35;20.00;1.00
10566;DHT22;5331;48.148;16.326;2023-05-10T11:03:04;20.30;1.00
10566;DHT22;5331;48.148;16.326;2023-05-10T11:05:37;20.20;1.00
10566;DHT22;5331;48.148;16.326;2023-05-10T11:08:12;19.90;1.00
10566;DHT22;5331;48.148;16.326;2023-05-10T11:10:40;19.70;1.00
10566;DHT22;5331;48.148;16.326;2023-05-10T11:13:08;20.00;1.00
10566;DHT22;5331;48.148;16.326;2023-05-10T11:15:37;20.00;1.00
10566;DHT22;5331;48.148;16.326;2023-05-10T11:18:25;19.80;1.00
10566;DHT22;5331;48.148;16.326;2023-05-10T11:20:56;19.90;1.00
10566;DHT22;5331;48.148;16.326;2023-05-10T11:23:29;20.00;1.00
10566;DHT22;5331;48.148;16.326;2023-05-10T11:25:56;19.80;1.00
10566;DHT22;5331;48.148;16.326;2023-05-10T11:28:24;19.80;1.00
10566;DHT22;5331;48.148;16.326;2023-05-10T11:30:52;19.60;1.00
10566;DHT22;5331;48.148;16.326;2023-05-10T11:33:19;19.70;1.00
10566;DHT22;5331;48.148;16.326;2023-05-10T11:35:46;19.80;1.00
10566;DHT22;5331;48.148;16.326;2023-05-10T11:38:14;19.90;1.00
10566;DHT22;5331;48.148;16.326;2023-05-10T11:40:42;19.70;1.00
10566;DHT22;5331;48.148;16.326;2023-05-10T11:43:09;19.90;1.00
10566;DHT22;5331;48.148;16.326;2023-05-10T11:45:37;20.20;1.00
10566;DHT22;5331;48.148;16.326;2023-05-10T11:48:04;20.30;1.00
10566;DHT22;5331;48.148;16.326;2023-05-10T11:50:31;20.00;1.00
10566;DHT22;5331;48.148;16.326;2023-05-10T11:52:59;19.90;1.00
10566;DHT22;5331;48.148;16.326;2023-05-10T11:55:26;20.10;1.00
10566;DHT22;5331;48.148;16.326;2023-05-10T11:57:54;20.40;1.00
10566;DHT22;5331;48.148;16.326;2023-05-10T12:00:21;20.50;1.00
10566;DHT22;5331;48.148;16.326;2023-05-10T12:02:49;20.30;1.00
10566;DHT22;5331;48.148;16.326;2023-05-10T12:05:16;20.20;1.00
10566;DHT22;5331;48.148;16.326;2023-05-10T12:07:43;20.40;1.00
10566;DHT22;5331;48.148;16.326;2023-05-10T12:10:12;20.30;1.00
10566;DHT22;5331;48.148;16.326;2023-05-10T12:12:41;20.10;1.00
10566;DHT22;5331;48.148;16.326;2023-05-10T12:15:18;19.90;1.00
10566;DHT22;5331;48.148;16.326;2023-05-10T12:17:46;19.70;1.00
10566;DHT22;5331;48.148;16.326;2023-05-10T12:20:14;19.70;1.00
10566;DHT22;5331;48.148;16.326;2023-05-10T12:22:47;19.70;1.00
10566;DHT22;5331;48.148;16.326;2023-05-10T12:25:16;20.00;1.00
10566;DHT22;5331;48.148;16.326;2023-05-10T12:27:51;20.00;1.00
10566;DHT22;5331;48.148;16.326;2023-05-10T12:30:24;19.60;1.00
10566;DHT22;5331;48.148;16.326;2023-05-10T12:32:52;19.50;1.00
10566;DHT22;5331;48.148;16.326;2023-05-10T12:35:20;19.60;1.00
10566;DHT22;5331;48.148;16.326;2023-05-10T12:37:50;19.60;1.00
10566;DHT22;5331;48.148;16.326;2023-05-10T12:40:17;19.70;1.00
10566;DHT22;5331;48.148;16.326;2023-05-10T12:42:44;19.50;1.00
10566;DHT22;5331;48.148;16.326;2023-05-10T12:45:12;19.40;1.00
10566;DHT22;5331;48.148;16.326;2023-05-10T12:47:40;19.20;1.00
10566;DHT22;5331;48.148;16.326;2023-05-10T12:50:07;19.30;1.00
10566;DHT22;5331;48.148;16.326;2023-05-10T12:52:35;19.40;1.00
10566;DHT22;5331;48.148;16.326;2023-05-10T12:55:01;19.60;1.00
10566;DHT22;5331;48.148;16.326;2023-05-10T12:57:29;19.60;1.00
10566;DHT22;5331;48.148;16.326;2023-05-10T12:59:56;19.60;1.00
10566;DHT22;5331;48.148;16.326;2023-05-10T13:02:23;19.60;1.00
10566;DHT22;5331;48.148;16.326;2023-05-10T13:04:52;19.70;1.00
10566;DHT22;5331;48.148;16.326;2023-05-10T13:07:20;19.60;1.00
10566;DHT22;5331;48.148;16.326;2023-05-10T13:09:47;19.70;1.00
10566;DHT22;5331;48.148;16.326;2023-05-10T13:12:14;20.10;1.00
10566;DHT22;5331;48.148;16.326;2023-05-10T13:14:40;20.20;1.00
10566;DHT22;5331;48.148;16.326;2023-05-10T13:17:07;20.10;1.00
10566;DHT22;5331;48.148;16.326;2023-05-10T13:19:38;20.10;1.00
10566;DHT22;5331;48.148;16.326;2023-05-10T13:22:06;19.90;1.00
10566;DHT22;5331;48.148;16.326;2023-05-10T13:24:33;19.80;1.00
10566;DHT22;5331;48.148;16.326;2023-05-10T13:27:00;20.00;1.00
10566;DHT22;5331;48.148;16.326;2023-05-10T13:29:28;20.20;1.00
10566;DHT22;5331;48.148;16.326;2023-05-10T13:31:55;20.10;1.00
10566;DHT22;5331;48.148;16.326;2023-05-10T13:34:21;20.10;1.00
10566;DHT22;5331;48.148;16.326;2023-05-10T13:36:49;20.00;1.00
10566;DHT22;5331;48.148;16.326;2023-05-10T13:39:19;20.20;1.00
10566;DHT22;5331;48.148;16.326;2023-05-10T13:41:46;20.20;1.00
10566;DHT22;5331;48.148;16.326;2023-05-10T13:44:14;20.30;1.00
10566;DHT22;5331;48.148;16.326;2023-05-10T13:46:41;20.70;1.00
10566;DHT22;5331;48.148;16.326;2023-05-10T13:49:09;20.60;1.00
10566;DHT22;5331;48.148;16.326;2023-05-10T13:51:36;20.30;1.00
10566;DHT22;5331;48.148;16.326;2023-05-10T13:54:03;20.40;1.00
10566;DHT22;5331;48.148;16.326;2023-05-10T13:56:32;20.70;1.00
10566;DHT22;5331;48.148;16.326;2023-05-10T13:58:59;20.50;1.00
10566;DHT22;5331;48.148;16.326;2023-05-10T14:01:26;20.30;1.00
10566;DHT22;5331;48.148;16.326;2023-05-10T14:03:55;20.30;1.00
10566;DHT22;5331;48.148;16.326;2023-05-10T14:06:21;20.50;1.00
10566;DHT22;5331;48.148;16.326;2023-05-10T14:08:48;20.60;1.00
10566;DHT22;5331;48.148;16.326;2023-05-10T14:11:15;20.40;1.00
10566;DHT22;5331;48.148;16.326;2023-05-10T14:13:44;20.10;1.00
10566;DHT22;5331;48.148;16.326;2023-05-10T14:16:11;19.90;1.00
10566;DHT22;5331;48.148;16.326;2023-05-10T14:18:40;19.70;1.00
10566;DHT22;5331;48.148;16.326;2023-05-10T14:21:08;19.40;1.00
10566;DHT22;5331;48.148;16.326;2023-05-10T14:23:35;19.30;1.00
10566;DHT22;5331;48.148;16.326;2023-05-10T14:26:02;19.30;1.00
10566;DHT22;5331;48.148;16.326;2023-05-10T14:28:29;19.40;1.00
10566;DHT22;5331;48.148;16.326;2023-05-10T14:30:58;19.40;1.00
10566;DHT22;5331;48.148;16.326;2023-05-10T14:33:24;19.30;1.00
10566;DHT22;5331;48.148;16.326;2023-05-10T14:35:51;19.30;1.00
10566;DHT22;5331;48.148;16.326;2023-05-10T14:38:18;19.20;1.00
10566;DHT22;5331;48.148;16.326;2023-05-10T14:40:45;19.20;1.00
10566;DHT22;5331;48.148;16.326;2023-05-10T14:43:12;19.20;1.00
10566;DHT22;5331;48.148;16.326;2023-05-10T14:45:40;19.10;1.00
10566;DHT22;5331;48.148;16.326;2023-05-10T14:48:08;19.10;1.00
10566;DHT22;5331;48.148;16.326;2023-05-10T14:50:37;19.00;1.00
10566;DHT22;5331;48.148;16.326;2023-05-10T14:53:05;18.90;1.00
10566;DHT22;5331;48.148;16.326;2023-05-10T14:55:32;18.90;1.00
10566;DHT22;5331;48.148;16.326;2023-05-10T14:58:00;18.90;1.00
10566;DHT22;5331;48.148;16.326;2023-05-10T15:00:29;18.80;1.00
10566;DHT22;5331;48.148;16.326;2023-05-10T15:02:56;18.90;1.00
10566;DHT22;5331;48.148;16.326;2023-05-10T15:05:25;18.90;1.00
10566;DHT22;5331;48.148;16.326;2023-05-10T15:07:52;18.90;1.00
10566;DHT22;5331;48.148;16.326;2023-05-10T15:10:19;19.20;1.00
10566;DHT22;5331;48.148;16.326;2023-05-10T15:12:46;19.20;1.00
10566;DHT22;5331;48.148;16.326;2023-05-10T15:15:13;19.30;1.00
10566;DHT22;5331;48.148;16.326;2023-05-10T15:17:40;19.30;1.00
10566;DHT22;5331;48.148;16.326;2023-05-10T15:20:08;19.40;1.00
10566;DHT22;5331;48.148;16.326;2023-05-10T15:22:36;19.50;1.00
10566;DHT22;5331;48.148;16.326;2023-05-10T15:25:04;19.70;1.00
10566;DHT22;5331;48.148;16.326;2023-05-10T15:27:31;19.60;1.00
10566;DHT22;5331;48.148;16.326;2023-05-10T15:29:58;19.70;1.00
10566;DHT22;5331;48.148;16.326;2023-05-10T15:32:25;19.70;1.00
10566;DHT22;5331;48.148;16.326;2023-05-10T15:34:52;19.70;1.00
10566;DHT22;5331;48.148;16.326;2023-05-10T15:37:19;19.60;1.00
10566;DHT22;5331;48.148;16.326;2023-05-10T15:39:47;19.40;1.00
10566;DHT22;5331;48.148;16.326;2023-05-10T15:42:14;19.40;1.00
10566;DHT22;5331;48.148;16.326;2023-05-10T15:44:41;19.20;1.00
10566;DHT22;5331;48.148;16.326;2023-05-10T15:47:10;19.10;1.00
10566;DHT22;5331;48.148;16.326;2023-05-10T15:49:37;19.00;1.00
10566;DHT22;5331;48.148;16.326;2023-05-10T15:52:04;19.00;1.00
10566;DHT22;5331;48.148;16.326;2023-05-10T15:54:30;19.10;1.00
10566;DHT22;5331;48.148;16.326;2023-05-10T15:56:59;19.00;1.00
10566;DHT22;5331;48.148;16.326;2023-05-10T15:59:26;19.10;1.00